createdAt,value
2019-04-05T00:00:52.816Z,972.33
2019-04-05T00:01:52.996Z,972.33
2019-04-05T00:02:53.184Z,972.31
2019-04-05T00:03:53.364Z,972.34
2019-04-05T00:04:53.557Z,972.35
2019-04-05T00:05:53.733Z,972.33
2019-04-05T00:06:53.917Z,972.35
2019-04-05T00:07:54.105Z,972.34
2019-04-05T00:08:54.281Z,972.33
2019-04-05T00:09:54.467Z,972.37
2019-04-05T00:10:54.649Z,972.35
2019-04-05T00:11:54.837Z,972.38
2019-04-05T00:12:55.020Z,972.33
2019-04-05T00:13:55.205Z,972.33
2019-04-05T00:14:55.390Z,972.32
2019-04-05T00:15:55.569Z,972.28
2019-04-05T00:16:55.752Z,972.29
2019-04-05T00:17:55.935Z,972.27
2019-04-05T00:18:56.117Z,972.35
2019-04-05T00:19:56.301Z,972.34
2019-04-05T00:20:56.491Z,972.40
2019-04-05T00:21:56.683Z,972.34
2019-04-05T00:22:56.866Z,972.36
2019-04-05T00:23:57.064Z,972.34
2019-04-05T00:24:57.247Z,972.32
2019-04-05T00:25:57.429Z,972.26
2019-04-05T00:26:57.615Z,972.30
2019-04-05T00:27:57.802Z,972.29
2019-04-05T00:28:57.984Z,972.25
2019-04-05T00:29:58.165Z,972.26
2019-04-05T00:30:58.352Z,972.27
2019-04-05T00:31:58.537Z,972.24
2019-04-05T00:32:58.713Z,972.28
2019-04-05T00:33:58.903Z,972.25
2019-04-05T00:34:59.089Z,972.28
2019-04-05T00:35:59.272Z,972.27
2019-04-05T00:36:59.461Z,972.27
2019-04-05T00:37:59.647Z,972.26
2019-04-05T00:38:59.830Z,972.24
2019-04-05T00:40:00.014Z,972.31
2019-04-05T00:41:00.194Z,972.27
2019-04-05T00:42:00.374Z,972.28
2019-04-05T00:43:00.554Z,972.29
2019-04-05T00:44:00.747Z,972.29
2019-04-05T00:45:00.925Z,972.27
2019-04-05T00:46:01.108Z,972.27
2019-04-05T00:47:01.300Z,972.28
2019-04-05T00:48:01.469Z,972.29
2019-04-05T00:49:01.664Z,972.31
2019-04-05T00:50:01.851Z,972.29
2019-04-05T00:51:02.029Z,972.27
2019-04-05T00:52:02.213Z,972.29
2019-04-05T00:53:02.395Z,972.22
2019-04-05T00:54:02.574Z,972.27
2019-04-05T00:55:02.757Z,972.26
2019-04-05T00:56:02.940Z,972.25
2019-04-05T00:57:03.120Z,972.25
2019-04-05T00:58:03.311Z,972.24
2019-04-05T00:59:03.490Z,972.24
2019-04-05T01:00:03.673Z,972.20
2019-04-05T01:01:03.864Z,972.18
2019-04-05T01:02:04.044Z,972.15
2019-04-05T01:03:04.230Z,972.08
2019-04-05T01:04:04.418Z,972.04
2019-04-05T01:05:04.601Z,971.98
2019-04-05T01:06:04.785Z,972.01
2019-04-05T01:07:04.970Z,971.99
2019-04-05T01:08:05.154Z,972.04
2019-04-05T01:09:05.337Z,972.05
2019-04-05T01:10:05.522Z,972.08
2019-04-05T01:11:05.706Z,972.09
2019-04-05T01:12:05.891Z,972.10
2019-04-05T01:13:06.082Z,972.09
2019-04-05T01:14:06.264Z,972.12
2019-04-05T01:15:06.448Z,972.09
2019-04-05T01:16:06.634Z,972.12
2019-04-05T01:17:06.833Z,972.14
2019-04-05T01:18:07.024Z,972.17
2019-04-05T01:19:07.242Z,972.21
2019-04-05T01:20:07.417Z,972.19
2019-04-05T01:21:07.590Z,972.20
2019-04-05T01:22:07.797Z,972.17
2019-04-05T01:23:08.005Z,972.15
2019-04-05T01:24:08.166Z,972.16
2019-04-05T01:25:08.350Z,972.14
2019-04-05T01:26:08.535Z,972.14
2019-04-05T01:27:08.716Z,972.14
2019-04-05T01:28:08.911Z,972.17
2019-04-05T01:29:09.104Z,972.15
2019-04-05T01:30:09.288Z,972.19
2019-04-05T01:31:09.469Z,972.20
2019-04-05T01:32:09.649Z,972.20
2019-04-05T01:33:09.837Z,972.15
2019-04-05T01:34:10.025Z,972.18
2019-04-05T01:35:10.206Z,972.18
2019-04-05T01:36:10.415Z,972.19
2019-04-05T01:37:10.593Z,972.22
2019-04-05T01:38:10.779Z,972.22
2019-04-05T01:39:10.960Z,972.22
2019-04-05T01:40:11.143Z,972.25
2019-04-05T01:41:11.329Z,972.26
2019-04-05T01:42:11.515Z,972.24
2019-04-05T01:43:11.694Z,972.21
2019-04-05T01:44:11.878Z,972.25
2019-04-05T01:45:12.063Z,972.25
2019-04-05T01:46:12.246Z,972.29
2019-04-05T01:47:12.431Z,972.27
2019-04-05T01:48:12.609Z,972.26
2019-04-05T01:49:12.800Z,972.26
2019-04-05T01:50:12.976Z,972.27
2019-04-05T01:51:13.156Z,972.32
2019-04-05T01:52:13.348Z,972.33
2019-04-05T01:53:13.532Z,972.34
2019-04-05T01:54:13.717Z,972.34
2019-04-05T01:55:13.897Z,972.35
2019-04-05T01:56:14.088Z,972.33
2019-04-05T01:57:14.270Z,972.34
2019-04-05T01:58:14.450Z,972.34
2019-04-05T01:59:14.632Z,972.37
2019-04-05T02:00:14.826Z,972.39
2019-04-05T02:01:14.997Z,972.40
2019-04-05T02:02:15.192Z,972.41
2019-04-05T02:03:15.364Z,972.41
2019-04-05T02:04:15.553Z,972.43
2019-04-05T02:05:15.731Z,972.41
2019-04-05T02:06:15.914Z,972.43
2019-04-05T02:07:16.098Z,972.46
2019-04-05T02:08:16.296Z,972.41
2019-04-05T02:09:16.485Z,972.41
2019-04-05T02:10:16.686Z,972.37
2019-04-05T02:11:16.858Z,972.40
2019-04-05T02:12:17.044Z,972.39
2019-04-05T02:13:17.228Z,972.40
2019-04-05T02:14:17.400Z,972.42
2019-04-05T02:15:17.583Z,972.43
2019-04-05T02:16:17.770Z,972.41
2019-04-05T02:17:17.953Z,972.43
2019-04-05T02:18:18.140Z,972.42
2019-04-05T02:19:18.335Z,972.37
2019-04-05T02:20:18.511Z,972.40
2019-04-05T02:21:18.691Z,972.37
2019-04-05T02:22:18.880Z,972.38
2019-04-05T02:23:19.068Z,972.36
2019-04-05T02:24:19.248Z,972.35
2019-04-05T02:25:19.432Z,972.34
2019-04-05T02:26:19.614Z,972.35
2019-04-05T02:27:19.799Z,972.37
2019-04-05T02:28:19.989Z,972.39
2019-04-05T02:29:20.170Z,972.36
2019-04-05T02:30:20.339Z,972.40
2019-04-05T02:31:20.538Z,972.41
2019-04-05T02:32:20.730Z,972.39
2019-04-05T02:33:20.926Z,972.43
2019-04-05T02:34:21.105Z,972.43
2019-04-05T02:35:21.286Z,972.39
2019-04-05T02:36:21.468Z,972.39
2019-04-05T02:37:21.653Z,972.42
2019-04-05T02:38:21.843Z,972.38
2019-04-05T02:39:22.019Z,972.42
2019-04-05T02:40:22.199Z,972.43
2019-04-05T02:41:22.380Z,972.45
2019-04-05T02:42:22.557Z,972.45
2019-04-05T02:43:22.778Z,972.43
2019-04-05T02:44:22.929Z,972.46
2019-04-05T02:45:23.115Z,972.46
2019-04-05T02:46:24.447Z,972.45
2019-04-05T02:47:23.487Z,972.43
2019-04-05T02:48:23.664Z,972.46
2019-04-05T02:49:23.849Z,972.45
2019-04-05T02:50:24.035Z,972.47
2019-04-05T02:51:24.206Z,972.48
2019-04-05T02:52:24.409Z,972.52
2019-04-05T02:53:24.601Z,972.48
2019-04-05T02:54:24.782Z,972.51
2019-04-05T02:55:25.033Z,972.52
2019-04-05T02:56:25.153Z,972.51
2019-04-05T02:57:25.331Z,972.51
2019-04-05T02:58:25.527Z,972.53
2019-04-05T02:59:25.699Z,972.49
2019-04-05T03:00:25.882Z,972.50
2019-04-05T03:01:26.065Z,972.48
2019-04-05T03:02:26.246Z,972.48
2019-04-05T03:03:26.436Z,972.46
2019-04-05T03:04:26.613Z,972.47
2019-04-05T03:05:26.797Z,972.41
2019-04-05T03:06:26.972Z,972.42
2019-04-05T03:07:27.154Z,972.43
2019-04-05T03:08:27.340Z,972.42
2019-04-05T03:09:27.522Z,972.43
2019-04-05T03:10:27.702Z,972.45
2019-04-05T03:11:27.895Z,972.51
2019-04-05T03:12:28.081Z,972.47
2019-04-05T03:13:28.259Z,972.45
2019-04-05T03:14:28.455Z,972.49
2019-04-05T03:15:28.637Z,972.46
2019-04-05T03:16:40.095Z,972.49
2019-04-05T03:17:28.997Z,972.46
2019-04-05T03:18:29.174Z,972.48
2019-04-05T03:19:29.354Z,972.45
2019-04-05T03:20:29.548Z,972.44
2019-04-05T03:21:29.715Z,972.45
2019-04-05T03:22:29.921Z,972.47
2019-04-05T03:23:30.103Z,972.49
2019-04-05T03:24:30.284Z,972.48
2019-04-05T03:25:30.498Z,972.48
2019-04-05T03:26:30.673Z,972.48
2019-04-05T03:27:30.864Z,972.49
2019-04-05T03:28:31.052Z,972.49
2019-04-05T03:29:31.242Z,972.52
2019-04-05T03:30:31.440Z,972.53
2019-04-05T03:31:31.619Z,972.51
2019-04-05T03:32:31.801Z,972.53
2019-04-05T03:33:32.008Z,972.54
2019-04-05T03:34:32.186Z,972.55
2019-04-05T03:35:32.361Z,972.54
2019-04-05T03:36:32.552Z,972.52
2019-04-05T03:37:32.741Z,972.50
2019-04-05T03:38:32.925Z,972.51
2019-04-05T03:39:33.121Z,972.53
2019-04-05T03:40:33.286Z,972.54
2019-04-05T03:41:33.491Z,972.55
2019-04-05T03:42:33.677Z,972.58
2019-04-05T03:43:33.863Z,972.64
2019-04-05T03:44:34.042Z,972.60
2019-04-05T03:45:34.254Z,972.62
2019-04-05T03:46:34.408Z,972.57
2019-04-05T03:47:34.598Z,972.53
2019-04-05T03:48:34.792Z,972.54
2019-04-05T03:49:34.978Z,972.51
2019-04-05T03:50:35.160Z,972.53
2019-04-05T03:51:35.353Z,972.56
2019-04-05T03:52:35.527Z,972.56
2019-04-05T03:53:35.706Z,972.55
2019-04-05T03:54:35.883Z,972.55
2019-04-05T03:55:36.075Z,972.57
2019-04-05T03:56:38.310Z,972.60
2019-04-05T03:57:36.434Z,972.64
2019-04-05T03:58:36.647Z,972.66
2019-04-05T03:59:36.807Z,972.64
2019-04-05T04:00:36.992Z,972.65
2019-04-05T04:01:37.185Z,972.71
2019-04-05T04:02:37.368Z,972.72
2019-04-05T04:03:37.553Z,972.72
2019-04-05T04:04:37.742Z,972.77
2019-04-05T04:05:37.943Z,972.77
2019-04-05T04:06:38.109Z,972.77
2019-04-05T04:07:38.315Z,972.73
2019-04-05T04:08:38.501Z,972.76
2019-04-05T04:09:38.686Z,972.80
2019-04-05T04:10:38.872Z,972.87
2019-04-05T04:11:39.070Z,972.85
2019-04-05T04:12:39.248Z,972.88
2019-04-05T04:13:39.422Z,972.85
2019-04-05T04:14:39.600Z,972.93
2019-04-05T04:15:39.779Z,972.91
2019-04-05T04:16:39.971Z,972.91
2019-04-05T04:17:40.149Z,972.95
2019-04-05T04:18:40.342Z,972.95
2019-04-05T04:19:40.524Z,973.00
2019-04-05T04:20:40.711Z,972.96
2019-04-05T04:21:40.889Z,973.00
2019-04-05T04:22:41.074Z,973.02
2019-04-05T04:23:41.254Z,972.98
2019-04-05T04:24:41.413Z,973.01
2019-04-05T04:25:41.608Z,973.04
2019-04-05T04:26:41.787Z,973.03
2019-04-05T04:27:41.972Z,973.01
2019-04-05T04:28:42.157Z,973.06
2019-04-05T04:29:42.356Z,973.07
2019-04-05T04:30:42.536Z,973.07
2019-04-05T04:31:42.719Z,973.10
2019-04-05T04:32:42.905Z,973.04
2019-04-05T04:33:43.085Z,973.07
2019-04-05T04:34:43.271Z,973.02
2019-04-05T04:35:43.452Z,972.98
2019-04-05T04:36:43.634Z,973.00
2019-04-05T04:37:43.818Z,973.03
2019-04-05T04:38:43.997Z,973.00
2019-04-05T04:39:44.185Z,973.02
2019-04-05T04:40:44.368Z,973.07
2019-04-05T04:41:44.556Z,973.03
2019-04-05T04:42:44.728Z,973.02
2019-04-05T04:43:44.922Z,973.06
2019-04-05T04:44:45.103Z,973.07
2019-04-05T04:45:45.284Z,973.04
2019-04-05T04:46:48.026Z,973.06
2019-04-05T04:47:45.654Z,973.09
2019-04-05T04:48:45.840Z,973.08
2019-04-05T04:49:46.015Z,973.14
2019-04-05T04:50:46.202Z,973.12
2019-04-05T04:51:46.388Z,973.14
2019-04-05T04:52:46.573Z,973.14
2019-04-05T04:53:46.771Z,973.09
2019-04-05T04:54:46.946Z,973.15
2019-04-05T04:55:47.130Z,973.17
2019-04-05T04:56:47.313Z,973.21
2019-04-05T04:57:47.497Z,973.21
2019-04-05T04:58:47.680Z,973.24
2019-04-05T04:59:47.870Z,973.23
2019-04-05T05:00:48.050Z,973.23
2019-04-05T05:01:48.241Z,973.24
2019-04-05T05:02:48.432Z,973.24
2019-04-05T05:03:48.615Z,973.20
2019-04-05T05:04:48.799Z,973.19
2019-04-05T05:05:48.984Z,973.24
2019-04-05T05:06:49.174Z,973.26
2019-04-05T05:07:49.351Z,973.28
2019-04-05T05:08:49.533Z,973.26
2019-04-05T05:09:49.719Z,973.27
2019-04-05T05:10:49.910Z,973.27
2019-04-05T05:11:50.090Z,973.30
2019-04-05T05:12:50.276Z,973.31
2019-04-05T05:13:50.462Z,973.29
2019-04-05T05:14:50.658Z,973.30
2019-04-05T05:15:50.847Z,973.27
2019-04-05T05:16:51.034Z,973.34
2019-04-05T05:17:58.618Z,973.26
2019-04-05T05:18:51.398Z,973.28
2019-04-05T05:19:51.590Z,973.24
2019-04-05T05:20:51.771Z,973.28
2019-04-05T05:21:51.957Z,973.21
2019-04-05T05:22:52.142Z,973.23
2019-04-05T05:23:52.323Z,973.24
2019-04-05T05:24:52.507Z,973.26
2019-04-05T05:25:52.691Z,973.22
2019-04-05T05:26:52.879Z,973.25
2019-04-05T05:27:53.064Z,973.23
2019-04-05T05:28:53.245Z,973.32
2019-04-05T05:29:53.449Z,973.32
2019-04-05T05:30:53.620Z,973.33
2019-04-05T05:31:53.803Z,973.35
2019-04-05T05:32:53.988Z,973.32
2019-04-05T05:33:54.169Z,973.31
2019-04-05T05:35:01.919Z,973.32
2019-04-05T05:35:54.544Z,973.33
2019-04-05T05:36:54.720Z,973.33
2019-04-05T05:37:54.908Z,973.35
2019-04-05T05:38:55.097Z,973.42
2019-04-05T05:39:55.282Z,973.40
2019-04-05T05:40:55.465Z,973.45
2019-04-05T05:41:55.648Z,973.39
2019-04-05T05:42:55.831Z,973.34
2019-04-05T05:43:56.025Z,973.37
2019-04-05T05:44:56.206Z,973.31
2019-04-05T05:45:56.394Z,973.32
2019-04-05T05:46:56.577Z,973.31
2019-04-05T05:47:56.762Z,973.31
2019-04-05T05:48:56.948Z,973.35
2019-04-05T05:49:57.132Z,973.39
2019-04-05T05:50:57.319Z,973.37
2019-04-05T05:51:57.498Z,973.39
2019-04-05T05:52:57.686Z,973.41
2019-04-05T05:53:57.878Z,973.40
2019-04-05T05:54:58.064Z,973.42
2019-04-05T05:55:58.250Z,973.46
2019-04-05T05:56:58.432Z,973.48
2019-04-05T05:57:58.868Z,973.49
2019-04-05T05:58:59.628Z,973.49
2019-04-05T06:00:00.609Z,973.44
2019-04-05T06:00:59.169Z,973.43
2019-04-05T06:01:59.353Z,973.48
2019-04-05T06:02:59.538Z,973.49
2019-04-05T06:03:59.727Z,973.52
2019-04-05T06:04:59.917Z,973.47
2019-04-05T06:06:04.697Z,973.50
2019-04-05T06:07:00.313Z,973.46
2019-04-05T06:08:00.988Z,973.46
2019-04-05T06:09:00.679Z,973.46
2019-04-05T06:10:00.865Z,973.44
2019-04-05T06:11:01.050Z,973.45
2019-04-05T06:12:01.229Z,973.44
2019-04-05T06:13:01.412Z,973.38
2019-04-05T06:14:01.609Z,973.38
2019-04-05T06:15:01.788Z,973.36
2019-04-05T06:16:01.974Z,973.35
2019-04-05T06:17:02.159Z,973.33
2019-04-05T06:18:04.990Z,973.34
2019-04-05T06:19:02.527Z,973.33
2019-04-05T06:20:02.713Z,973.39
2019-04-05T06:21:03.576Z,973.39
2019-04-05T06:22:03.076Z,973.37
2019-04-05T06:23:03.257Z,973.38
2019-04-05T06:24:05.260Z,973.38
2019-04-05T06:25:03.630Z,973.43
2019-04-05T06:26:03.834Z,973.39
2019-04-05T06:27:04.011Z,973.37
2019-04-05T06:28:04.196Z,973.42
2019-04-05T06:29:04.383Z,973.38
2019-04-05T06:30:04.554Z,973.40
2019-04-05T06:31:04.750Z,973.38
2019-04-05T06:32:04.947Z,973.39
2019-04-05T06:33:05.132Z,973.35
2019-04-05T06:34:05.324Z,973.33
2019-04-05T06:35:05.513Z,973.32
2019-04-05T06:36:05.693Z,973.32
2019-04-05T06:37:05.875Z,973.35
2019-04-05T06:38:06.059Z,973.34
2019-04-05T06:39:06.248Z,973.36
2019-04-05T06:40:06.432Z,973.35
2019-04-05T06:41:06.615Z,973.33
2019-04-05T06:42:06.798Z,973.34
2019-04-05T06:43:07.114Z,973.34
2019-04-05T06:44:07.176Z,973.34
2019-04-05T06:45:07.356Z,973.32
2019-04-05T06:46:07.603Z,973.30
2019-04-05T06:47:07.727Z,973.33
2019-04-05T06:48:18.325Z,973.32
2019-04-05T06:49:08.098Z,973.31
2019-04-05T06:50:08.276Z,973.32
2019-04-05T06:51:08.476Z,973.26
2019-04-05T06:52:08.653Z,973.23
2019-04-05T06:53:08.845Z,973.20
2019-04-05T06:54:09.027Z,973.20
2019-04-05T06:55:09.221Z,973.15
2019-04-05T06:56:09.409Z,973.15
2019-04-05T06:57:09.589Z,973.16
2019-04-05T06:58:10.469Z,973.12
2019-04-05T06:59:09.958Z,973.18
2019-04-05T07:00:10.223Z,973.15
2019-04-05T07:01:10.332Z,973.18
2019-04-05T07:02:10.519Z,973.24
2019-04-05T07:03:13.477Z,973.27
2019-04-05T07:04:10.887Z,973.30
2019-04-05T07:05:11.069Z,973.35
2019-04-05T07:06:11.254Z,973.33
2019-04-05T07:07:11.441Z,973.38
2019-04-05T07:08:11.628Z,973.40
2019-04-05T07:09:11.807Z,973.43
2019-04-05T07:10:11.996Z,973.46
2019-04-05T07:11:12.181Z,973.47
2019-04-05T07:12:12.366Z,973.49
2019-04-05T07:13:12.550Z,973.49
2019-04-05T07:14:12.736Z,973.55
2019-04-05T07:15:12.976Z,973.53
2019-04-05T07:16:13.102Z,973.53
2019-04-05T07:17:13.285Z,973.54
2019-04-05T07:18:13.464Z,973.50
2019-04-05T07:19:13.650Z,973.52
2019-04-05T07:20:13.843Z,973.45
2019-04-05T07:21:17.004Z,973.47
2019-04-05T07:22:14.204Z,973.48
2019-04-05T07:23:14.414Z,973.53
2019-04-05T07:24:14.567Z,973.50
2019-04-05T07:25:14.749Z,973.48
2019-04-05T07:26:14.925Z,973.48
2019-04-05T07:27:15.107Z,973.53
2019-04-05T07:28:15.299Z,973.51
2019-04-05T07:29:15.474Z,973.53
2019-04-05T07:30:15.657Z,973.54
2019-04-05T07:31:15.844Z,973.54
2019-04-05T07:32:16.040Z,973.55
2019-04-05T07:33:16.220Z,973.58
2019-04-05T07:34:16.407Z,973.57
2019-04-05T07:35:16.591Z,973.58
2019-04-05T07:36:16.776Z,973.59
2019-04-05T07:37:16.957Z,973.60
2019-04-05T07:38:17.136Z,973.61
2019-04-05T07:39:17.370Z,973.61
2019-04-05T07:40:17.498Z,973.61
2019-04-05T07:41:17.689Z,973.65
2019-04-05T07:42:17.868Z,973.61
2019-04-05T07:43:18.053Z,973.66
2019-04-05T07:44:18.235Z,973.65
2019-04-05T07:45:18.424Z,973.65
2019-04-05T07:46:18.611Z,973.67
2019-04-05T07:47:18.795Z,973.66
2019-04-05T07:48:18.984Z,973.67
2019-04-05T07:49:19.177Z,973.64
2019-04-05T07:50:19.355Z,973.67
2019-04-05T07:51:22.507Z,973.65
2019-04-05T07:52:19.735Z,973.64
2019-04-05T07:53:19.914Z,973.63
2019-04-05T07:54:20.098Z,973.57
2019-04-05T07:55:20.303Z,973.59
2019-04-05T07:56:20.465Z,973.59
2019-04-05T07:57:20.655Z,973.65
2019-04-05T07:58:20.840Z,973.66
2019-04-05T07:59:21.177Z,973.65
2019-04-05T08:00:21.218Z,973.66
2019-04-05T08:01:21.404Z,973.63
2019-04-05T08:02:21.588Z,973.65
2019-04-05T08:03:21.768Z,973.58
2019-04-05T08:04:21.957Z,973.58
2019-04-05T08:05:22.144Z,973.59
2019-04-05T08:06:22.321Z,973.57
2019-04-05T08:07:22.508Z,973.55
2019-04-05T08:08:22.695Z,973.51
2019-04-05T08:09:22.876Z,973.50
2019-04-05T08:10:23.067Z,973.51
2019-04-05T08:11:23.249Z,973.48
2019-04-05T08:12:23.436Z,973.52
2019-04-05T08:13:23.618Z,973.52
2019-04-05T08:14:23.814Z,973.56
2019-04-05T08:15:24.000Z,973.53
2019-04-05T08:16:24.188Z,973.55
2019-04-05T08:17:24.374Z,973.53
2019-04-05T08:18:24.560Z,973.57
2019-04-05T08:19:24.743Z,973.58
2019-04-05T08:20:25.348Z,973.61
2019-04-05T08:21:25.119Z,973.61
2019-04-05T08:22:25.308Z,973.61
2019-04-05T08:23:25.499Z,973.63
2019-04-05T08:24:25.688Z,973.60
2019-04-05T08:25:25.872Z,973.64
2019-04-05T08:26:26.058Z,973.63
2019-04-05T08:27:26.257Z,973.64
2019-04-05T08:28:29.407Z,973.64
2019-04-05T08:29:26.643Z,973.63
2019-04-05T08:30:26.828Z,973.62
2019-04-05T08:31:27.015Z,973.64
2019-04-05T08:32:27.208Z,973.64
2019-04-05T08:33:27.392Z,973.66
2019-04-05T08:34:27.571Z,973.68
2019-04-05T08:35:27.761Z,973.70
2019-04-05T08:36:27.946Z,973.68
2019-04-05T08:37:28.134Z,973.70
2019-04-05T08:38:28.312Z,973.68
2019-04-05T08:39:28.508Z,973.70
2019-04-05T08:40:28.688Z,973.74
2019-04-05T08:41:28.886Z,973.76
2019-04-05T08:42:29.067Z,973.79
2019-04-05T08:43:29.255Z,973.83
2019-04-05T08:44:29.438Z,973.81
2019-04-05T08:45:29.622Z,973.88
2019-04-05T08:46:29.815Z,973.88
2019-04-05T08:47:30.040Z,973.88
2019-04-05T08:48:30.187Z,973.88
2019-04-05T08:49:30.364Z,973.93
2019-04-05T08:50:30.556Z,973.86
2019-04-05T08:51:30.751Z,973.86
2019-04-05T08:52:30.923Z,973.86
2019-04-05T08:53:31.133Z,973.85
2019-04-05T08:54:33.198Z,973.91
2019-04-05T08:55:31.499Z,973.89
2019-04-05T08:56:31.686Z,973.91
2019-04-05T08:57:31.870Z,973.92
2019-04-05T08:58:33.565Z,973.92
2019-04-05T08:59:32.254Z,973.91
2019-04-05T09:00:32.436Z,973.91
2019-04-05T09:01:32.631Z,973.92
2019-04-05T09:02:32.882Z,973.91
2019-04-05T09:03:32.990Z,973.91
2019-04-05T09:04:33.177Z,973.94
2019-04-05T09:05:33.638Z,973.91
2019-04-05T09:06:33.546Z,973.91
2019-04-05T09:07:33.731Z,973.90
2019-04-05T09:08:33.921Z,973.95
2019-04-05T09:09:34.107Z,973.94
2019-04-05T09:10:34.296Z,973.95
2019-04-05T09:11:34.484Z,973.93
2019-04-05T09:12:34.665Z,973.94
2019-04-05T09:13:34.858Z,973.96
2019-04-05T09:14:35.046Z,973.94
2019-04-05T09:15:35.242Z,973.96
2019-04-05T09:16:35.428Z,973.96
2019-04-05T09:17:35.618Z,973.98
2019-04-05T09:18:35.874Z,973.96
2019-04-05T09:19:35.993Z,973.96
2019-04-05T09:20:36.126Z,973.95
2019-04-05T09:21:40.244Z,973.95
2019-04-05T09:22:36.488Z,974.01
2019-04-05T09:23:36.674Z,973.99
2019-04-05T09:24:36.857Z,973.99
2019-04-05T09:25:37.046Z,973.99
2019-04-05T09:26:37.239Z,974.01
2019-04-05T09:27:37.452Z,974.03
2019-04-05T09:28:37.630Z,974.02
2019-04-05T09:29:37.817Z,974.00
2019-04-05T09:30:38.005Z,973.98
2019-04-05T09:31:38.190Z,974.00
2019-04-05T09:32:38.373Z,974.00
2019-04-05T09:33:38.560Z,973.99
2019-04-05T09:34:38.741Z,974.00
2019-04-05T09:35:38.937Z,974.01
2019-04-05T09:36:39.117Z,973.97
2019-04-05T09:37:39.304Z,973.97
2019-04-05T09:38:39.487Z,973.98
2019-04-05T09:39:39.671Z,973.92
2019-04-05T09:40:39.863Z,973.91
2019-04-05T09:41:40.042Z,973.96
2019-04-05T09:42:40.316Z,973.99
2019-04-05T09:43:40.367Z,973.95
2019-04-05T09:44:40.560Z,974.01
2019-04-05T09:45:40.751Z,973.98
2019-04-05T09:46:47.120Z,973.97
2019-04-05T09:47:41.117Z,973.99
2019-04-05T09:48:41.307Z,973.99
2019-04-05T09:49:41.507Z,974.02
2019-04-05T09:50:41.670Z,974.07
2019-04-05T09:51:41.847Z,974.07
2019-04-05T09:52:42.038Z,974.10
2019-04-05T09:53:42.219Z,974.12
2019-04-05T09:54:42.405Z,974.13
2019-04-05T09:55:42.588Z,974.14
2019-04-05T09:56:42.785Z,974.17
2019-04-05T09:57:42.967Z,974.16
2019-04-05T09:58:43.180Z,974.16
2019-04-05T09:59:43.332Z,974.19
2019-04-05T10:00:43.521Z,974.24
2019-04-05T10:01:43.724Z,974.24
2019-04-05T10:02:43.905Z,974.25
2019-04-05T10:03:44.087Z,974.25
2019-04-05T10:04:44.274Z,974.28
2019-04-05T10:05:44.464Z,974.26
2019-04-05T10:06:44.643Z,974.28
2019-04-05T10:07:54.902Z,974.29
2019-04-05T10:08:45.024Z,974.24
2019-04-05T10:09:45.211Z,974.30
2019-04-05T10:10:45.401Z,974.29
2019-04-05T10:11:45.589Z,974.30
2019-04-05T10:12:45.775Z,974.29
2019-04-05T10:13:45.972Z,974.32
2019-04-05T10:14:46.161Z,974.32
2019-04-05T10:15:46.351Z,974.32
2019-04-05T10:16:46.546Z,974.33
2019-04-05T10:17:46.731Z,974.33
2019-04-05T10:18:46.912Z,974.35
2019-04-05T10:19:50.294Z,974.33
2019-04-05T10:20:47.282Z,974.31
2019-04-05T10:21:47.470Z,974.27
2019-04-05T10:22:47.670Z,974.26
2019-04-05T10:23:47.850Z,974.26
2019-04-05T10:24:48.093Z,974.25
2019-04-05T10:25:48.223Z,974.24
2019-04-05T10:26:48.402Z,974.22
2019-04-05T10:27:48.591Z,974.22
2019-04-05T10:28:48.775Z,974.22
2019-04-05T10:29:49.674Z,974.22
2019-04-05T10:30:51.827Z,974.22
2019-04-05T10:31:49.341Z,974.21
2019-04-05T10:32:49.519Z,974.27
2019-04-05T10:33:49.716Z,974.28
2019-04-05T10:34:49.891Z,974.32
2019-04-05T10:35:50.084Z,974.29
2019-04-05T10:36:50.277Z,974.30
2019-04-05T10:37:50.456Z,974.35
2019-04-05T10:38:50.644Z,974.35
2019-04-05T10:39:50.945Z,974.31
2019-04-05T10:40:51.051Z,974.27
2019-04-05T10:42:02.933Z,974.30
2019-04-05T10:42:51.429Z,974.27
2019-04-05T10:43:51.604Z,974.32
2019-04-05T10:44:51.790Z,974.32
2019-04-05T10:45:51.974Z,974.33
2019-04-05T10:46:52.157Z,974.31
2019-04-05T10:47:52.341Z,974.30
2019-04-05T10:48:52.529Z,974.34
2019-04-05T10:50:02.461Z,974.32
2019-04-05T10:50:52.923Z,974.29
2019-04-05T10:51:53.110Z,974.29
2019-04-05T10:52:53.291Z,974.25
2019-04-05T10:53:53.483Z,974.25
2019-04-05T10:54:53.667Z,974.25
2019-04-05T10:55:53.848Z,974.23
2019-04-05T10:56:54.034Z,974.26
2019-04-05T10:57:54.217Z,974.25
2019-04-05T10:58:54.413Z,974.24
2019-04-05T10:59:54.601Z,974.26
2019-04-05T11:00:54.783Z,974.25
2019-04-05T11:01:54.971Z,974.22
2019-04-05T11:02:55.189Z,974.22
2019-04-05T11:03:55.356Z,974.23
2019-04-05T11:04:55.533Z,974.22
2019-04-05T11:05:55.720Z,974.23
2019-04-05T11:06:55.902Z,974.21
2019-04-05T11:07:56.092Z,974.20
2019-04-05T11:08:56.282Z,974.19
2019-04-05T11:09:56.471Z,974.15
2019-04-05T11:10:56.655Z,974.14
2019-04-05T11:11:56.842Z,974.12
2019-04-05T11:12:57.023Z,974.13
2019-04-05T11:13:57.216Z,974.13
2019-04-05T11:14:57.397Z,974.12
2019-04-05T11:15:57.582Z,974.17
2019-04-05T11:16:58.843Z,974.14
2019-04-05T11:17:57.947Z,974.14
2019-04-05T11:18:58.133Z,974.12
2019-04-05T11:19:58.319Z,974.18
2019-04-05T11:20:58.502Z,974.16
2019-04-05T11:21:58.697Z,974.17
2019-04-05T11:22:58.878Z,974.18
2019-04-05T11:23:59.062Z,974.18
2019-04-05T11:24:59.265Z,974.20
2019-04-05T11:25:59.450Z,974.21
2019-04-05T11:26:59.637Z,974.18
2019-04-05T11:27:59.830Z,974.14
2019-04-05T11:29:00.021Z,974.18
2019-04-05T11:30:00.212Z,974.19
2019-04-05T11:31:00.392Z,974.21
2019-04-05T11:32:00.584Z,974.23
2019-04-05T11:33:00.774Z,974.25
2019-04-05T11:34:00.959Z,974.25
2019-04-05T11:35:01.163Z,974.20
2019-04-05T11:36:01.333Z,974.20
2019-04-05T11:37:02.987Z,974.21
2019-04-05T11:38:01.720Z,974.22
2019-04-05T11:39:01.906Z,974.15
2019-04-05T11:40:02.095Z,974.15
2019-04-05T11:41:02.279Z,974.14
2019-04-05T11:42:02.462Z,974.07
2019-04-05T11:43:02.653Z,974.09
2019-04-05T11:44:02.887Z,974.03
2019-04-05T11:45:03.023Z,974.08
2019-04-05T11:46:03.211Z,974.06
2019-04-05T11:47:03.407Z,974.05
2019-04-05T11:48:03.619Z,974.00
2019-04-05T11:49:04.482Z,974.05
2019-04-05T11:50:04.020Z,974.03
2019-04-05T11:51:04.153Z,974.04
2019-04-05T11:52:04.345Z,974.03
2019-04-05T11:53:04.530Z,974.03
2019-04-05T11:54:04.719Z,974.05
2019-04-05T11:55:04.903Z,974.06
2019-04-05T11:56:14.373Z,974.03
2019-04-05T11:57:05.290Z,974.02
2019-04-05T11:58:05.464Z,974.07
2019-04-05T11:59:05.657Z,974.12
2019-04-05T12:00:05.891Z,974.09
2019-04-05T12:01:06.053Z,974.12
2019-04-05T12:02:06.239Z,974.14
2019-04-05T12:03:09.504Z,974.14
2019-04-05T12:04:06.616Z,974.15
2019-04-05T12:05:06.802Z,974.13
2019-04-05T12:06:07.007Z,974.08
2019-04-05T12:07:07.190Z,974.10
2019-04-05T12:08:07.383Z,974.10
2019-04-05T12:09:07.580Z,974.12
2019-04-05T12:10:07.759Z,974.14
2019-04-05T12:11:07.950Z,974.12
2019-04-05T12:12:08.128Z,974.11
2019-04-05T12:13:08.317Z,974.04
2019-04-05T12:14:08.513Z,974.03
2019-04-05T12:15:08.697Z,974.01
2019-04-05T12:16:10.510Z,973.98
2019-04-05T12:17:09.839Z,974.03
2019-04-05T12:18:09.260Z,974.06
2019-04-05T12:19:09.447Z,974.06
2019-04-05T12:20:09.638Z,974.05
2019-04-05T12:21:09.829Z,974.04
2019-04-05T12:22:10.062Z,974.03
2019-04-05T12:23:10.252Z,973.98
2019-04-05T12:24:10.438Z,974.00
2019-04-05T12:25:10.623Z,973.98
2019-04-05T12:26:10.817Z,973.97
2019-04-05T12:27:11.017Z,974.01
2019-04-05T12:28:11.219Z,974.01
2019-04-05T12:29:11.405Z,973.99
2019-04-05T12:30:11.589Z,974.02
2019-04-05T12:31:11.770Z,974.01